sensor_id;sensor_type;location;lat;lon;timestamp;P1;durP1;ratioP1;P2;durP2;ratioP2
1164;SDS011;571;50.930;6.926;2023-09-19T02:47:36;4.63;;;2.20;;
1164;SDS011;571;50.930;6.926;2023-09-19T03:07:06;5.53;;;2.10;;
1164;SDS011;571;50.930;6.926;2023-09-19T03:10:27;4.80;;;1.73;;
1164;SDS011;571;50.930;6.926;2023-09-19T03:13:50;9.47;;;3.00;;
1164;SDS011;571;50.930;6.926;2023-09-19T03:22:25;12.70;;;2.43;;
1164;SDS011;571;50.930;6.926;2023-09-19T03:30:01;5.10;;;1.97;;
1164;SDS011;571;50.930;6.926;2023-09-19T03:38:41;11.40;;;2.90;;
1164;SDS011;571;50.930;6.926;2023-09-19T03:39:30;6.70;;;2.47;;
1164;SDS011;571;50.930;6.926;2023-09-19T03:42:51;2.90;;;2.37;;
1164;SDS011;571;50.930;6.926;2023-09-19T04:13:24;8.90;;;3.17;;
1164;SDS011;571;50.930;6.926;2023-09-19T04:44:29;8.57;;;2.50;;
1164;SDS011;571;50.930;6.926;2023-09-19T04:50:21;10.07;;;3.50;;
1164;SDS011;571;50.930;6.926;2023-09-19T04:56:24;9.93;;;2.57;;
1164;SDS011;571;50.930;6.926;2023-09-19T04:59:30;6.63;;;2.00;;
1164;SDS011;571;50.930;6.926;2023-09-19T05:09:13;7.67;;;2.60;;
1164;SDS011;571;50.930;6.926;2023-09-19T05:39:23;6.50;;;3.00;;
1164;SDS011;571;50.930;6.926;2023-09-19T05:42:27;4.03;;;3.07;;
1164;SDS011;571;50.930;6.926;2023-09-19T05:45:33;6.67;;;3.17;;
1164;SDS011;571;50.930;6.926;2023-09-19T05:48:28;13.47;;;2.50;;
1164;SDS011;571;50.930;6.926;2023-09-19T05:51:29;7.63;;;2.80;;
1164;SDS011;571;50.930;6.926;2023-09-19T06:11:50;9.90;;;3.07;;
1164;SDS011;571;50.930;6.926;2023-09-19T06:15:16;8.03;;;2.77;;
1164;SDS011;571;50.930;6.926;2023-09-19T06:21:18;10.20;;;2.90;;
1164;SDS011;571;50.930;6.926;2023-09-19T06:37:21;9.77;;;3.17;;
1164;SDS011;571;50.930;6.926;2023-09-19T06:40:15;4.77;;;2.17;;
1164;SDS011;571;50.930;6.926;2023-09-19T06:53:34;11.10;;;2.80;;
1164;SDS011;571;50.930;6.926;2023-09-19T06:56:41;9.07;;;2.87;;
1164;SDS011;571;50.930;6.926;2023-09-19T06:59:32;5.60;;;2.80;;
1164;SDS011;571;50.930;6.926;2023-09-19T07:06:27;5.20;;;2.90;;
1164;SDS011;571;50.930;6.926;2023-09-19T07:12:34;9.47;;;3.43;;
1164;SDS011;571;50.930;6.926;2023-09-19T07:15:24;4.73;;;2.40;;
1164;SDS011;571;50.930;6.926;2023-09-19T07:18:43;11.03;;;3.27;;
1164;SDS011;571;50.930;6.926;2023-09-19T07:31:51;7.90;;;2.93;;
1164;SDS011;571;50.930;6.926;2023-09-19T07:34:50;7.17;;;3.23;;
1164;SDS011;571;50.930;6.926;2023-09-19T07:37:49;5.43;;;2.10;;
1164;SDS011;571;50.930;6.926;2023-09-19T07:40:44;10.30;;;3.87;;
1164;SDS011;571;50.930;6.926;2023-09-19T07:47:19;14.73;;;3.47;;
1164;SDS011;571;50.930;6.926;2023-09-19T07:49:56;9.13;;;2.90;;
1164;SDS011;571;50.930;6.926;2023-09-19T07:52:40;9.60;;;2.90;;
1164;SDS011;571;50.930;6.926;2023-09-19T07:55:25;5.10;;;2.00;;
1164;SDS011;571;50.930;6.926;2023-09-19T07:58:08;6.13;;;2.73;;
1164;SDS011;571;50.930;6.926;2023-09-19T08:00:44;6.57;;;2.77;;
1164;SDS011;571;50.930;6.926;2023-09-19T08:03:15;9.63;;;3.00;;
1164;SDS011;571;50.930;6.926;2023-09-19T08:15:59;9.63;;;3.30;;
1164;SDS011;571;50.930;6.926;2023-09-19T08:34:59;7.87;;;3.37;;
1164;SDS011;571;50.930;6.926;2023-09-19T08:37:46;10.50;;;2.80;;
1164;SDS011;571;50.930;6.926;2023-09-19T08:43:45;6.03;;;2.53;;
1164;SDS011;571;50.930;6.926;2023-09-19T08:46:14;8.03;;;3.57;;
1164;SDS011;571;50.930;6.926;2023-09-19T08:49:08;6.33;;;1.90;;
1164;SDS011;571;50.930;6.926;2023-09-19T08:52:01;6.50;;;1.97;;
1164;SDS011;571;50.930;6.926;2023-09-19T08:54:49;6.30;;;2.73;;
1164;SDS011;571;50.930;6.926;2023-09-19T08:57:20;9.07;;;2.33;;
1164;SDS011;571;50.930;6.926;2023-09-19T09:00:08;6.00;;;2.50;;
1164;SDS011;571;50.930;6.926;2023-09-19T09:03:07;7.13;;;2.43;;
1164;SDS011;571;50.930;6.926;2023-09-19T09:06:03;6.10;;;2.50;;
1164;SDS011;571;50.930;6.926;2023-09-19T09:08:50;5.57;;;2.10;;
1164;SDS011;571;50.930;6.926;2023-09-19T09:11:33;4.90;;;2.57;;
1164;SDS011;571;50.930;6.926;2023-09-19T09:52:14;6.13;;;2.37;;
1164;SDS011;571;50.930;6.926;2023-09-19T10:12:45;3.27;;;1.40;;
1164;SDS011;571;50.930;6.926;2023-09-19T10:16:01;6.17;;;1.70;;
1164;SDS011;571;50.930;6.926;2023-09-19T10:19:29;6.83;;;2.53;;
1164;SDS011;571;50.930;6.926;2023-09-19T10:22:35;4.60;;;2.17;;
1164;SDS011;571;50.930;6.926;2023-09-19T10:25:26;6.23;;;1.80;;
1164;SDS011;571;50.930;6.926;2023-09-19T10:31:49;5.33;;;2.20;;
1164;SDS011;571;50.930;6.926;2023-09-19T10:40:34;4.43;;;1.67;;
1164;SDS011;571;50.930;6.926;2023-09-19T10:43:15;5.57;;;2.10;;
1164;SDS011;571;50.930;6.926;2023-09-19T10:45:52;4.30;;;1.60;;
1164;SDS011;571;50.930;6.926;2023-09-19T10:48:53;7.30;;;2.30;;
1164;SDS011;571;50.930;6.926;2023-09-19T10:51:44;4.57;;;2.23;;
1164;SDS011;571;50.930;6.926;2023-09-19T11:08:01;7.30;;;2.30;;
1164;SDS011;571;50.930;6.926;2023-09-19T11:17:39;10.00;;;2.60;;
1164;SDS011;571;50.930;6.926;2023-09-19T11:20:49;3.20;;;1.87;;
1164;SDS011;571;50.930;6.926;2023-09-19T11:30:49;3.50;;;2.37;;
1164;SDS011;571;50.930;6.926;2023-09-19T11:54:01;3.80;;;1.90;;
1164;SDS011;571;50.930;6.926;2023-09-19T11:57:04;3.20;;;1.73;;
1164;SDS011;571;50.930;6.926;2023-09-19T12:03:51;4.83;;;1.70;;
1164;SDS011;571;50.930;6.926;2023-09-19T12:06:50;3.40;;;1.67;;
1164;SDS011;571;50.930;6.926;2023-09-19T12:10:23;4.53;;;2.03;;
1164;SDS011;571;50.930;6.926;2023-09-19T12:13:16;4.23;;;1.97;;
1164;SDS011;571;50.930;6.926;2023-09-19T12:16:24;4.40;;;2.00;;
1164;SDS011;571;50.930;6.926;2023-09-19T12:22:40;3.93;;;1.70;;
1164;SDS011;571;50.930;6.926;2023-09-19T12:25:43;5.80;;;2.30;;
1164;SDS011;571;50.930;6.926;2023-09-19T12:28:29;2.53;;;1.50;;
1164;SDS011;571;50.930;6.926;2023-09-19T12:31:23;2.73;;;1.87;;
1164;SDS011;571;50.930;6.926;2023-09-19T12:34:22;2.57;;;1.70;;
1164;SDS011;571;50.930;6.926;2023-09-19T12:37:08;3.70;;;1.77;;
1164;SDS011;571;50.930;6.926;2023-09-19T12:40:12;3.73;;;1.83;;
1164;SDS011;571;50.930;6.926;2023-09-19T12:42:59;3.47;;;1.97;;
1164;SDS011;571;50.930;6.926;2023-09-19T12:45:37;5.77;;;1.90;;
1164;SDS011;571;50.930;6.926;2023-09-19T12:48:25;2.80;;;1.20;;
1164;SDS011;571;50.930;6.926;2023-09-19T12:51:05;4.43;;;1.90;;
1164;SDS011;571;50.930;6.926;2023-09-19T12:54:30;4.53;;;2.53;;
1164;SDS011;571;50.930;6.926;2023-09-19T12:57:35;6.23;;;2.20;;
1164;SDS011;571;50.930;6.926;2023-09-19T13:00:39;3.90;;;1.80;;
1164;SDS011;571;50.930;6.926;2023-09-19T13:03:25;3.60;;;1.63;;
1164;SDS011;571;50.930;6.926;2023-09-19T13:05:56;5.23;;;2.00;;
1164;SDS011;571;50.930;6.926;2023-09-19T13:09:10;3.47;;;1.60;;
1164;SDS011;571;50.930;6.926;2023-09-19T13:11:52;2.60;;;1.10;;
1164;SDS011;571;50.930;6.926;2023-09-19T13:14:47;6.97;;;1.80;;
1164;SDS011;571;50.930;6.926;2023-09-19T13:17:55;3.90;;;1.60;;
1164;SDS011;571;50.930;6.926;2023-09-19T13:24:21;3.20;;;1.70;;
1164;SDS011;571;50.930;6.926;2023-09-19T13:27:09;3.03;;;1.00;;
1164;SDS011;571;50.930;6.926;2023-09-19T13:43:02;3.00;;;1.33;;
1164;SDS011;571;50.930;6.926;2023-09-19T13:45:41;2.77;;;1.27;;
1164;SDS011;571;50.930;6.926;2023-09-19T13:48:27;4.80;;;1.50;;
1164;SDS011;571;50.930;6.926;2023-09-19T13:51:35;2.53;;;1.00;;
1164;SDS011;571;50.930;6.926;2023-09-19T13:54:20;3.00;;;1.30;;
1164;SDS011;571;50.930;6.926;2023-09-19T14:20:30;4.70;;;1.23;;
1164;SDS011;571;50.930;6.926;2023-09-19T14:27:32;6.50;;;1.20;;
1164;SDS011;571;50.930;6.926;2023-09-19T14:29:59;4.30;;;1.90;;
1164;SDS011;571;50.930;6.926;2023-09-19T14:40:48;2.93;;;1.37;;
1164;SDS011;571;50.930;6.926;2023-09-19T15:08:34;1.50;;;0.80;;
1164;SDS011;571;50.930;6.926;2023-09-19T15:11:55;4.83;;;2.00;;
1164;SDS011;571;50.930;6.926;2023-09-19T15:21:45;4.23;;;1.37;;
1164;SDS011;571;50.930;6.926;2023-09-19T15:27:15;6.17;;;2.60;;
1164;SDS011;571;50.930;6.926;2023-09-19T15:43:00;2.07;;;1.10;;
1164;SDS011;571;50.930;6.926;2023-09-19T15:46:01;2.30;;;0.97;;
1164;SDS011;571;50.930;6.926;2023-09-19T15:49:02;1.50;;;1.03;;
1164;SDS011;571;50.930;6.926;2023-09-19T15:58:24;4.90;;;1.30;;
1164;SDS011;571;50.930;6.926;2023-09-19T16:01:44;3.33;;;1.27;;
1164;SDS011;571;50.930;6.926;2023-09-19T16:05:16;1.63;;;1.10;;
1164;SDS011;571;50.930;6.926;2023-09-19T16:11:48;2.70;;;1.00;;
1164;SDS011;571;50.930;6.926;2023-09-19T16:17:51;4.03;;;1.47;;
1164;SDS011;571;50.930;6.926;2023-09-19T16:20:32;3.50;;;1.10;;
1164;SDS011;571;50.930;6.926;2023-09-19T16:30:01;7.00;;;1.20;;
1164;SDS011;571;50.930;6.926;2023-09-19T16:42:57;2.90;;;0.90;;
1164;SDS011;571;50.930;6.926;2023-09-19T16:55:12;3.47;;;0.90;;
1164;SDS011;571;50.930;6.926;2023-09-19T17:08:59;2.77;;;1.20;;
1164;SDS011;571;50.930;6.926;2023-09-19T17:12:07;4.13;;;1.37;;
1164;SDS011;571;50.930;6.926;2023-09-19T17:14:48;3.57;;;1.57;;
1164;SDS011;571;50.930;6.926;2023-09-19T17:17:29;2.87;;;1.10;;
1164;SDS011;571;50.930;6.926;2023-09-19T17:20:33;4.40;;;1.50;;
1164;SDS011;571;50.930;6.926;2023-09-19T17:23:55;3.17;;;1.20;;
1164;SDS011;571;50.930;6.926;2023-09-19T17:26:46;5.03;;;1.70;;
1164;SDS011;571;50.930;6.926;2023-09-19T17:29:29;3.10;;;1.37;;
1164;SDS011;571;50.930;6.926;2023-09-19T17:34:54;2.10;;;1.17;;
1164;SDS011;571;50.930;6.926;2023-09-19T17:37:25;6.27;;;1.27;;
1164;SDS011;571;50.930;6.926;2023-09-19T17:40:19;2.53;;;1.13;;
1164;SDS011;571;50.930;6.926;2023-09-19T17:42:47;4.33;;;1.47;;
1164;SDS011;571;50.930;6.926;2023-09-19T17:45:20;3.97;;;1.20;;
1164;SDS011;571;50.930;6.926;2023-09-19T17:47:52;2.37;;;1.90;;
1164;SDS011;571;50.930;6.926;2023-09-19T17:50:41;2.90;;;1.90;;
1164;SDS011;571;50.930;6.926;2023-09-19T17:53:08;3.70;;;1.63;;
1164;SDS011;571;50.930;6.926;2023-09-19T17:58:57;4.20;;;1.80;;
1164;SDS011;571;50.930;6.926;2023-09-19T18:01:33;3.40;;;1.50;;
1164;SDS011;571;50.930;6.926;2023-09-19T18:04:19;4.47;;;2.20;;
1164;SDS011;571;50.930;6.926;2023-09-19T18:06:48;3.90;;;1.30;;
1164;SDS011;571;50.930;6.926;2023-09-19T18:09:19;3.33;;;1.57;;
1164;SDS011;571;50.930;6.926;2023-09-19T18:11:59;3.00;;;1.17;;
1164;SDS011;571;50.930;6.926;2023-09-19T18:14:51;3.57;;;1.47;;
1164;SDS011;571;50.930;6.926;2023-09-19T18:17:27;3.40;;;1.50;;
1164;SDS011;571;50.930;6.926;2023-09-19T18:20:17;5.00;;;2.10;;
1164;SDS011;571;50.930;6.926;2023-09-19T18:22:59;3.13;;;1.23;;
1164;SDS011;571;50.930;6.926;2023-09-19T18:25:38;3.93;;;1.30;;
1164;SDS011;571;50.930;6.926;2023-09-19T18:31:42;4.77;;;2.00;;
1164;SDS011;571;50.930;6.926;2023-09-19T18:34:34;5.90;;;2.13;;
1164;SDS011;571;50.930;6.926;2023-09-19T18:37:14;3.60;;;1.80;;
1164;SDS011;571;50.930;6.926;2023-09-19T18:40:05;2.27;;;1.60;;
1164;SDS011;571;50.930;6.926;2023-09-19T18:43:10;2.80;;;1.80;;
1164;SDS011;571;50.930;6.926;2023-09-19T18:45:56;5.30;;;1.77;;
1164;SDS011;571;50.930;6.926;2023-09-19T18:48:41;5.77;;;1.70;;
1164;SDS011;571;50.930;6.926;2023-09-19T18:51:32;8.03;;;2.10;;
1164;SDS011;571;50.930;6.926;2023-09-19T18:54:28;5.00;;;1.43;;
1164;SDS011;571;50.930;6.926;2023-09-19T18:59:36;4.63;;;1.37;;
1164;SDS011;571;50.930;6.926;2023-09-19T19:09:51;2.50;;;1.00;;
1164;SDS011;571;50.930;6.926;2023-09-19T19:12:29;2.77;;;1.50;;
1164;SDS011;571;50.930;6.926;2023-09-19T19:18:22;4.83;;;1.60;;
1164;SDS011;571;50.930;6.926;2023-09-19T19:20:59;4.30;;;1.67;;
1164;SDS011;571;50.930;6.926;2023-09-19T19:23:35;1.63;;;1.23;;
1164;SDS011;571;50.930;6.926;2023-09-19T19:26:21;3.40;;;1.37;;
1164;SDS011;571;50.930;6.926;2023-09-19T19:31:38;4.03;;;2.27;;
1164;SDS011;571;50.930;6.926;2023-09-19T19:35:07;3.13;;;1.90;;
1164;SDS011;571;50.930;6.926;2023-09-19T19:37:54;2.50;;;1.20;;
1164;SDS011;571;50.930;6.926;2023-09-19T19:40:32;5.40;;;1.63;;
1164;SDS011;571;50.930;6.926;2023-09-19T19:43:29;2.00;;;0.97;;
1164;SDS011;571;50.930;6.926;2023-09-19T19:49:25;3.37;;;1.97;;
1164;SDS011;571;50.930;6.926;2023-09-19T19:52:06;3.60;;;1.60;;
1164;SDS011;571;50.930;6.926;2023-09-19T19:54:43;3.83;;;1.50;;
1164;SDS011;571;50.930;6.926;2023-09-19T20:03:13;2.40;;;1.20;;
1164;SDS011;571;50.930;6.926;2023-09-19T20:12:12;2.10;;;1.90;;
1164;SDS011;571;50.930;6.926;2023-09-19T20:15:20;2.07;;;1.50;;
1164;SDS011;571;50.930;6.926;2023-09-19T20:18:06;4.10;;;1.17;;
1164;SDS011;571;50.930;6.926;2023-09-19T20:20:46;2.77;;;1.47;;
1164;SDS011;571;50.930;6.926;2023-09-19T20:26:35;5.67;;;2.13;;
1164;SDS011;571;50.930;6.926;2023-09-19T20:29:48;6.93;;;1.50;;
1164;SDS011;571;50.930;6.926;2023-09-19T20:32:25;3.13;;;1.50;;
1164;SDS011;571;50.930;6.926;2023-09-19T20:35:16;5.67;;;1.80;;
1164;SDS011;571;50.930;6.926;2023-09-19T20:37:55;2.90;;;1.73;;
1164;SDS011;571;50.930;6.926;2023-09-19T20:40:52;6.43;;;1.83;;
1164;SDS011;571;50.930;6.926;2023-09-19T20:53:12;2.60;;;1.60;;
1164;SDS011;571;50.930;6.926;2023-09-19T20:55:46;2.43;;;1.23;;
1164;SDS011;571;50.930;6.926;2023-09-19T20:58:17;3.57;;;1.50;;
1164;SDS011;571;50.930;6.926;2023-09-19T21:00:47;2.63;;;2.13;;
1164;SDS011;571;50.930;6.926;2023-09-19T21:03:47;3.73;;;1.50;;
1164;SDS011;571;50.930;6.926;2023-09-19T21:06:26;1.70;;;1.60;;
1164;SDS011;571;50.930;6.926;2023-09-19T21:08:56;2.93;;;1.73;;
1164;SDS011;571;50.930;6.926;2023-09-19T21:11:31;3.43;;;1.30;;
1164;SDS011;571;50.930;6.926;2023-09-19T21:14:10;2.03;;;1.23;;
1164;SDS011;571;50.930;6.926;2023-09-19T21:16:37;2.20;;;1.60;;
1164;SDS011;571;50.930;6.926;2023-09-19T21:19:16;2.20;;;1.53;;
1164;SDS011;571;50.930;6.926;2023-09-19T21:21:52;4.00;;;2.00;;
1164;SDS011;571;50.930;6.926;2023-09-19T21:24:24;2.47;;;1.43;;
1164;SDS011;571;50.930;6.926;2023-09-19T21:27:03;3.90;;;1.87;;
1164;SDS011;571;50.930;6.926;2023-09-19T21:29:41;3.40;;;1.90;;
1164;SDS011;571;50.930;6.926;2023-09-19T21:32:18;3.73;;;1.93;;
1164;SDS011;571;50.930;6.926;2023-09-19T21:35:32;2.40;;;1.50;;
1164;SDS011;571;50.930;6.926;2023-09-19T21:41:15;8.13;;;1.90;;
1164;SDS011;571;50.930;6.926;2023-09-19T21:43:51;4.23;;;1.63;;
1164;SDS011;571;50.930;6.926;2023-09-19T21:46:38;2.50;;;1.37;;
1164;SDS011;571;50.930;6.926;2023-09-19T21:49:12;3.23;;;1.90;;
1164;SDS011;571;50.930;6.926;2023-09-19T21:51:57;1.93;;;1.70;;
1164;SDS011;571;50.930;6.926;2023-09-19T21:54:29;2.03;;;1.77;;
1164;SDS011;571;50.930;6.926;2023-09-19T21:56:57;1.83;;;1.43;;
1164;SDS011;571;50.930;6.926;2023-09-19T21:59:37;5.87;;;2.40;;
